sensor_id;sensor_type;location;lat;lon;timestamp;temperature;humidity
57664;DHT22;43493;53.098;6.064;2023-07-16T00:00:52;17.20;99.90
57664;DHT22;43493;53.098;6.064;2023-07-16T00:03:18;17.20;99.90
57664;DHT22;43493;53.098;6.064;2023-07-16T00:05:44;17.10;99.90
57664;DHT22;43493;53.098;6.064;2023-07-16T00:08:09;17.10;99.90
57664;DHT22;43493;53.098;6.064;2023-07-16T00:10:36;17.00;99.90
57664;DHT22;43493;53.098;6.064;2023-07-16T00:13:03;16.90;99.90
57664;DHT22;43493;53.098;6.064;2023-07-16T00:15:29;16.90;99.90
57664;DHT22;43493;53.098;6.064;2023-07-16T00:17:55;16.90;99.90
57664;DHT22;43493;53.098;6.064;2023-07-16T00:20:21;16.80;99.90
57664;DHT22;43493;53.098;6.064;2023-07-16T00:22:49;16.80;99.90
57664;DHT22;43493;53.098;6.064;2023-07-16T00:25:15;16.80;99.90
57664;DHT22;43493;53.098;6.064;2023-07-16T00:27:41;16.70;99.90
57664;DHT22;43493;53.098;6.064;2023-07-16T00:30:07;16.70;99.90
57664;DHT22;43493;53.098;6.064;2023-07-16T00:32:33;16.70;99.90
57664;DHT22;43493;53.098;6.064;2023-07-16T00:35:00;16.70;99.90
57664;DHT22;43493;53.098;6.064;2023-07-16T00:37:26;16.70;99.90
57664;DHT22;43493;53.098;6.064;2023-07-16T00:39:51;16.70;99.90
57664;DHT22;43493;53.098;6.064;2023-07-16T00:42:17;16.70;99.90
57664;DHT22;43493;53.098;6.064;2023-07-16T00:44:43;16.70;99.90
57664;DHT22;43493;53.098;6.064;2023-07-16T00:47:09;16.70;99.90
57664;DHT22;43493;53.098;6.064;2023-07-16T00:49:35;16.70;99.90
57664;DHT22;43493;53.098;6.064;2023-07-16T00:52:01;16.70;99.90
57664;DHT22;43493;53.098;6.064;2023-07-16T00:54:29;16.70;99.90
57664;DHT22;43493;53.098;6.064;2023-07-16T00:56:55;16.70;99.90
57664;DHT22;43493;53.098;6.064;2023-07-16T00:59:21;16.70;99.90
57664;DHT22;43493;53.098;6.064;2023-07-16T01:01:46;16.80;99.90
57664;DHT22;43493;53.098;6.064;2023-07-16T01:04:12;16.70;99.90
57664;DHT22;43493;53.098;6.064;2023-07-16T01:06:40;16.80;99.90
57664;DHT22;43493;53.098;6.064;2023-07-16T01:09:10;16.80;99.90
57664;DHT22;43493;53.098;6.064;2023-07-16T01:11:40;16.80;99.90
57664;DHT22;43493;53.098;6.064;2023-07-16T01:14:07;16.90;99.90
57664;DHT22;43493;53.098;6.064;2023-07-16T01:16:33;16.90;99.90
57664;DHT22;43493;53.098;6.064;2023-07-16T01:18:59;16.90;99.90
57664;DHT22;43493;53.098;6.064;2023-07-16T01:21:30;16.90;99.90
57664;DHT22;43493;53.098;6.064;2023-07-16T01:24:12;16.90;99.90
57664;DHT22;43493;53.098;6.064;2023-07-16T01:30:04;16.90;99.90
57664;DHT22;43493;53.098;6.064;2023-07-16T01:32:33;16.80;99.90
57664;DHT22;43493;53.098;6.064;2023-07-16T01:35:00;16.90;99.90
57664;DHT22;43493;53.098;6.064;2023-07-16T01:37:26;16.90;99.90
57664;DHT22;43493;53.098;6.064;2023-07-16T01:39:51;16.80;99.90
57664;DHT22;43493;53.098;6.064;2023-07-16T01:42:17;16.80;99.90
57664;DHT22;43493;53.098;6.064;2023-07-16T01:44:43;16.80;99.90
57664;DHT22;43493;53.098;6.064;2023-07-16T01:47:15;16.80;99.90
57664;DHT22;43493;53.098;6.064;2023-07-16T01:49:45;16.70;99.90
57664;DHT22;43493;53.098;6.064;2023-07-16T01:52:10;16.70;99.90
57664;DHT22;43493;53.098;6.064;2023-07-16T01:54:36;16.70;99.90
57664;DHT22;43493;53.098;6.064;2023-07-16T01:57:02;16.70;99.90
57664;DHT22;43493;53.098;6.064;2023-07-16T01:59:28;16.70;99.90
57664;DHT22;43493;53.098;6.064;2023-07-16T02:01:54;16.70;99.90
57664;DHT22;43493;53.098;6.064;2023-07-16T02:04:20;16.60;99.90
57664;DHT22;43493;53.098;6.064;2023-07-16T02:06:46;16.60;99.90
57664;DHT22;43493;53.098;6.064;2023-07-16T02:09:13;16.60;99.90
57664;DHT22;43493;53.098;6.064;2023-07-16T02:11:39;16.60;99.90
57664;DHT22;43493;53.098;6.064;2023-07-16T02:14:05;16.60;99.90
57664;DHT22;43493;53.098;6.064;2023-07-16T02:16:31;16.60;99.90
57664;DHT22;43493;53.098;6.064;2023-07-16T02:18:56;16.60;99.90
57664;DHT22;43493;53.098;6.064;2023-07-16T02:21:22;16.60;99.90
57664;DHT22;43493;53.098;6.064;2023-07-16T02:23:48;16.60;99.90
57664;DHT22;43493;53.098;6.064;2023-07-16T02:26:13;16.60;99.90
57664;DHT22;43493;53.098;6.064;2023-07-16T02:28:39;16.60;99.90
57664;DHT22;43493;53.098;6.064;2023-07-16T02:31:05;16.60;99.90
57664;DHT22;43493;53.098;6.064;2023-07-16T02:33:30;16.60;99.90
57664;DHT22;43493;53.098;6.064;2023-07-16T02:35:56;16.60;99.90
57664;DHT22;43493;53.098;6.064;2023-07-16T02:38:22;16.60;99.90
57664;DHT22;43493;53.098;6.064;2023-07-16T02:40:48;16.60;99.90
57664;DHT22;43493;53.098;6.064;2023-07-16T02:43:14;16.60;99.90
57664;DHT22;43493;53.098;6.064;2023-07-16T02:45:40;16.60;99.90
57664;DHT22;43493;53.098;6.064;2023-07-16T02:48:07;16.60;99.90
57664;DHT22;43493;53.098;6.064;2023-07-16T02:50:36;16.60;99.90
57664;DHT22;43493;53.098;6.064;2023-07-16T02:53:06;16.60;99.90
57664;DHT22;43493;53.098;6.064;2023-07-16T02:55:33;16.60;99.90
57664;DHT22;43493;53.098;6.064;2023-07-16T02:57:59;16.60;99.90
57664;DHT22;43493;53.098;6.064;2023-07-16T03:00:30;16.60;99.90
57664;DHT22;43493;53.098;6.064;2023-07-16T03:02:56;16.50;99.90
57664;DHT22;43493;53.098;6.064;2023-07-16T03:05:22;16.50;99.90
57664;DHT22;43493;53.098;6.064;2023-07-16T03:07:47;16.50;99.90
57664;DHT22;43493;53.098;6.064;2023-07-16T03:10:13;16.50;99.90
57664;DHT22;43493;53.098;6.064;2023-07-16T03:12:39;16.40;99.90
57664;DHT22;43493;53.098;6.064;2023-07-16T03:15:05;16.50;99.90
57664;DHT22;43493;53.098;6.064;2023-07-16T03:17:30;16.50;99.90
57664;DHT22;43493;53.098;6.064;2023-07-16T03:19:56;16.50;99.90
57664;DHT22;43493;53.098;6.064;2023-07-16T03:22:22;16.50;99.90
57664;DHT22;43493;53.098;6.064;2023-07-16T03:24:47;16.50;99.90
57664;DHT22;43493;53.098;6.064;2023-07-16T03:27:13;16.50;99.90
57664;DHT22;43493;53.098;6.064;2023-07-16T03:29:39;16.50;99.90
57664;DHT22;43493;53.098;6.064;2023-07-16T03:32:05;16.50;99.90
57664;DHT22;43493;53.098;6.064;2023-07-16T03:34:30;16.50;99.90
57664;DHT22;43493;53.098;6.064;2023-07-16T03:36:56;16.50;99.90
57664;DHT22;43493;53.098;6.064;2023-07-16T03:39:22;16.60;99.90
57664;DHT22;43493;53.098;6.064;2023-07-16T03:41:47;16.60;99.90
57664;DHT22;43493;53.098;6.064;2023-07-16T03:44:13;16.60;99.90
57664;DHT22;43493;53.098;6.064;2023-07-16T03:46:40;16.60;99.90
57664;DHT22;43493;53.098;6.064;2023-07-16T03:49:09;16.60;99.90
57664;DHT22;43493;53.098;6.064;2023-07-16T03:51:35;16.60;99.90
57664;DHT22;43493;53.098;6.064;2023-07-16T03:54:01;16.60;99.90
57664;DHT22;43493;53.098;6.064;2023-07-16T03:56:26;16.60;99.90
57664;DHT22;43493;53.098;6.064;2023-07-16T03:58:52;16.70;99.90
57664;DHT22;43493;53.098;6.064;2023-07-16T04:01:18;16.70;99.90
57664;DHT22;43493;53.098;6.064;2023-07-16T04:03:43;16.70;99.90
57664;DHT22;43493;53.098;6.064;2023-07-16T04:06:10;16.80;99.90
57664;DHT22;43493;53.098;6.064;2023-07-16T04:08:36;16.80;99.90
57664;DHT22;43493;53.098;6.064;2023-07-16T04:11:06;16.80;99.90
57664;DHT22;43493;53.098;6.064;2023-07-16T04:13:32;16.80;99.90
57664;DHT22;43493;53.098;6.064;2023-07-16T04:15:58;16.80;99.90
57664;DHT22;43493;53.098;6.064;2023-07-16T04:18:24;16.80;99.90
57664;DHT22;43493;53.098;6.064;2023-07-16T04:20:50;16.90;99.90
57664;DHT22;43493;53.098;6.064;2023-07-16T04:23:16;16.90;99.90
57664;DHT22;43493;53.098;6.064;2023-07-16T04:25:42;17.00;99.90
57664;DHT22;43493;53.098;6.064;2023-07-16T04:28:07;17.00;99.90
57664;DHT22;43493;53.098;6.064;2023-07-16T04:30:33;17.10;99.90
57664;DHT22;43493;53.098;6.064;2023-07-16T04:32:59;17.10;99.90
57664;DHT22;43493;53.098;6.064;2023-07-16T04:35:25;17.10;99.90
57664;DHT22;43493;53.098;6.064;2023-07-16T04:37:50;17.10;99.90
57664;DHT22;43493;53.098;6.064;2023-07-16T04:40:16;17.20;99.90
57664;DHT22;43493;53.098;6.064;2023-07-16T04:42:42;17.20;99.90
57664;DHT22;43493;53.098;6.064;2023-07-16T04:45:07;17.30;99.90
57664;DHT22;43493;53.098;6.064;2023-07-16T04:47:33;17.30;99.90
57664;DHT22;43493;53.098;6.064;2023-07-16T04:49:59;17.40;99.90
57664;DHT22;43493;53.098;6.064;2023-07-16T04:52:25;17.50;99.90
57664;DHT22;43493;53.098;6.064;2023-07-16T04:54:51;17.50;99.90
57664;DHT22;43493;53.098;6.064;2023-07-16T04:57:16;17.60;99.90
57664;DHT22;43493;53.098;6.064;2023-07-16T04:59:42;17.60;99.90
57664;DHT22;43493;53.098;6.064;2023-07-16T05:02:08;17.60;99.90
57664;DHT22;43493;53.098;6.064;2023-07-16T05:04:36;17.60;99.90
57664;DHT22;43493;53.098;6.064;2023-07-16T05:07:02;17.60;99.90
57664;DHT22;43493;53.098;6.064;2023-07-16T05:09:28;17.60;99.90
57664;DHT22;43493;53.098;6.064;2023-07-16T05:11:54;17.60;99.90
57664;DHT22;43493;53.098;6.064;2023-07-16T05:14:20;17.70;99.90
57664;DHT22;43493;53.098;6.064;2023-07-16T05:16:46;17.70;99.90
57664;DHT22;43493;53.098;6.064;2023-07-16T05:19:11;17.70;99.90
57664;DHT22;43493;53.098;6.064;2023-07-16T05:21:37;17.60;99.90
57664;DHT22;43493;53.098;6.064;2023-07-16T05:24:04;17.50;99.90
57664;DHT22;43493;53.098;6.064;2023-07-16T05:26:30;17.50;99.90
57664;DHT22;43493;53.098;6.064;2023-07-16T05:28:55;17.50;99.90
57664;DHT22;43493;53.098;6.064;2023-07-16T05:31:21;17.50;99.90
57664;DHT22;43493;53.098;6.064;2023-07-16T05:33:47;17.50;99.90
57664;DHT22;43493;53.098;6.064;2023-07-16T05:36:12;17.50;99.90
57664;DHT22;43493;53.098;6.064;2023-07-16T05:38:38;17.50;99.90
57664;DHT22;43493;53.098;6.064;2023-07-16T05:41:04;17.50;99.90
57664;DHT22;43493;53.098;6.064;2023-07-16T05:43:31;17.50;99.90
57664;DHT22;43493;53.098;6.064;2023-07-16T05:45:56;17.60;99.90
57664;DHT22;43493;53.098;6.064;2023-07-16T05:48:23;17.60;99.90
57664;DHT22;43493;53.098;6.064;2023-07-16T05:50:49;17.50;99.90
57664;DHT22;43493;53.098;6.064;2023-07-16T05:53:14;17.40;99.90
57664;DHT22;43493;53.098;6.064;2023-07-16T05:55:40;17.40;99.90
57664;DHT22;43493;53.098;6.064;2023-07-16T05:58:06;17.60;99.90
57664;DHT22;43493;53.098;6.064;2023-07-16T06:00:32;18.30;99.90
57664;DHT22;43493;53.098;6.064;2023-07-16T06:02:58;18.50;99.90
57664;DHT22;43493;53.098;6.064;2023-07-16T06:05:23;18.30;99.90
57664;DHT22;43493;53.098;6.064;2023-07-16T06:07:51;18.00;99.90
57664;DHT22;43493;53.098;6.064;2023-07-16T06:10:17;17.90;99.90
57664;DHT22;43493;53.098;6.064;2023-07-16T06:12:43;17.80;99.90
57664;DHT22;43493;53.098;6.064;2023-07-16T06:15:09;17.70;99.90
57664;DHT22;43493;53.098;6.064;2023-07-16T06:17:35;17.70;99.90
57664;DHT22;43493;53.098;6.064;2023-07-16T06:20:02;17.60;99.90
57664;DHT22;43493;53.098;6.064;2023-07-16T06:22:28;17.60;99.90
57664;DHT22;43493;53.098;6.064;2023-07-16T06:24:54;17.50;99.90
57664;DHT22;43493;53.098;6.064;2023-07-16T06:27:20;17.60;99.90
57664;DHT22;43493;53.098;6.064;2023-07-16T06:29:45;17.60;99.90
57664;DHT22;43493;53.098;6.064;2023-07-16T06:32:11;17.60;99.90
57664;DHT22;43493;53.098;6.064;2023-07-16T06:34:37;17.60;99.90
57664;DHT22;43493;53.098;6.064;2023-07-16T06:37:02;17.50;99.90
57664;DHT22;43493;53.098;6.064;2023-07-16T06:39:28;17.50;99.90
57664;DHT22;43493;53.098;6.064;2023-07-16T06:41:54;17.50;99.90
57664;DHT22;43493;53.098;6.064;2023-07-16T06:44:19;17.40;99.90
57664;DHT22;43493;53.098;6.064;2023-07-16T06:46:45;17.40;99.90
57664;DHT22;43493;53.098;6.064;2023-07-16T06:49:11;17.50;99.90
57664;DHT22;43493;53.098;6.064;2023-07-16T06:51:36;17.50;99.90
57664;DHT22;43493;53.098;6.064;2023-07-16T06:54:02;17.50;99.90
57664;DHT22;43493;53.098;6.064;2023-07-16T06:56:28;17.80;99.90
57664;DHT22;43493;53.098;6.064;2023-07-16T06:58:54;18.10;99.90
57664;DHT22;43493;53.098;6.064;2023-07-16T07:01:19;18.20;99.90
57664;DHT22;43493;53.098;6.064;2023-07-16T07:03:45;18.20;99.90
57664;DHT22;43493;53.098;6.064;2023-07-16T07:06:11;18.40;99.90
57664;DHT22;43493;53.098;6.064;2023-07-16T07:08:37;18.50;99.90
57664;DHT22;43493;53.098;6.064;2023-07-16T07:11:03;18.40;99.90
57664;DHT22;43493;53.098;6.064;2023-07-16T07:13:29;18.30;99.90
57664;DHT22;43493;53.098;6.064;2023-07-16T07:15:55;18.30;99.90
57664;DHT22;43493;53.098;6.064;2023-07-16T07:18:21;18.30;99.90
57664;DHT22;43493;53.098;6.064;2023-07-16T07:20:47;18.40;99.90
57664;DHT22;43493;53.098;6.064;2023-07-16T07:23:14;18.40;99.90
57664;DHT22;43493;53.098;6.064;2023-07-16T07:25:40;18.40;99.90
57664;DHT22;43493;53.098;6.064;2023-07-16T07:28:06;18.40;99.90
57664;DHT22;43493;53.098;6.064;2023-07-16T07:30:31;18.40;99.90
57664;DHT22;43493;53.098;6.064;2023-07-16T07:32:57;18.40;99.90
57664;DHT22;43493;53.098;6.064;2023-07-16T07:35:23;18.30;99.90
57664;DHT22;43493;53.098;6.064;2023-07-16T07:37:49;18.30;99.90
57664;DHT22;43493;53.098;6.064;2023-07-16T07:40:15;18.20;99.90
57664;DHT22;43493;53.098;6.064;2023-07-16T07:42:41;18.50;99.90
57664;DHT22;43493;53.098;6.064;2023-07-16T07:45:07;18.60;99.90
57664;DHT22;43493;53.098;6.064;2023-07-16T07:47:32;18.60;99.90
57664;DHT22;43493;53.098;6.064;2023-07-16T07:49:58;18.60;99.90
57664;DHT22;43493;53.098;6.064;2023-07-16T07:52:26;18.50;99.90
57664;DHT22;43493;53.098;6.064;2023-07-16T07:54:52;18.40;99.90
57664;DHT22;43493;53.098;6.064;2023-07-16T07:57:19;18.40;99.90
57664;DHT22;43493;53.098;6.064;2023-07-16T07:59:45;18.30;99.90
57664;DHT22;43493;53.098;6.064;2023-07-16T08:02:11;18.20;99.90
57664;DHT22;43493;53.098;6.064;2023-07-16T08:04:37;18.20;99.90
57664;DHT22;43493;53.098;6.064;2023-07-16T08:07:03;18.90;99.90
57664;DHT22;43493;53.098;6.064;2023-07-16T08:09:28;19.30;99.90
57664;DHT22;43493;53.098;6.064;2023-07-16T08:11:54;19.20;99.90
57664;DHT22;43493;53.098;6.064;2023-07-16T08:14:20;19.00;99.90
57664;DHT22;43493;53.098;6.064;2023-07-16T08:16:45;19.30;99.90
57664;DHT22;43493;53.098;6.064;2023-07-16T08:19:11;20.30;99.90
57664;DHT22;43493;53.098;6.064;2023-07-16T08:21:37;20.90;99.90
57664;DHT22;43493;53.098;6.064;2023-07-16T08:24:05;21.10;99.90
57664;DHT22;43493;53.098;6.064;2023-07-16T08:26:31;21.60;99.90
57664;DHT22;43493;53.098;6.064;2023-07-16T08:28:56;21.90;99.90
57664;DHT22;43493;53.098;6.064;2023-07-16T08:31:22;21.60;99.90
57664;DHT22;43493;53.098;6.064;2023-07-16T08:33:48;21.40;99.90
57664;DHT22;43493;53.098;6.064;2023-07-16T08:36:14;21.40;99.90
57664;DHT22;43493;53.098;6.064;2023-07-16T08:38:39;21.20;99.90
57664;DHT22;43493;53.098;6.064;2023-07-16T08:41:05;21.10;99.90
57664;DHT22;43493;53.098;6.064;2023-07-16T08:43:33;21.50;99.90
57664;DHT22;43493;53.098;6.064;2023-07-16T08:46:00;21.80;99.90
57664;DHT22;43493;53.098;6.064;2023-07-16T08:48:28;21.80;99.90
57664;DHT22;43493;53.098;6.064;2023-07-16T08:50:55;21.80;99.90
57664;DHT22;43493;53.098;6.064;2023-07-16T08:53:23;21.90;99.90
57664;DHT22;43493;53.098;6.064;2023-07-16T08:55:49;21.80;99.90
57664;DHT22;43493;53.098;6.064;2023-07-16T08:58:15;21.60;99.90
57664;DHT22;43493;53.098;6.064;2023-07-16T09:00:44;21.40;99.90
57664;DHT22;43493;53.098;6.064;2023-07-16T09:03:14;21.10;99.90
57664;DHT22;43493;53.098;6.064;2023-07-16T09:05:43;20.80;99.90
57664;DHT22;43493;53.098;6.064;2023-07-16T09:08:09;20.40;99.90
57664;DHT22;43493;53.098;6.064;2023-07-16T09:10:35;20.20;99.90
57664;DHT22;43493;53.098;6.064;2023-07-16T09:13:01;20.30;99.90
57664;DHT22;43493;53.098;6.064;2023-07-16T09:15:29;20.40;99.90
57664;DHT22;43493;53.098;6.064;2023-07-16T09:17:55;20.60;99.90
57664;DHT22;43493;53.098;6.064;2023-07-16T09:20:21;20.80;99.90
57664;DHT22;43493;53.098;6.064;2023-07-16T09:22:49;20.70;99.90
57664;DHT22;43493;53.098;6.064;2023-07-16T09:25:16;20.50;99.90
57664;DHT22;43493;53.098;6.064;2023-07-16T09:27:42;20.30;99.90
57664;DHT22;43493;53.098;6.064;2023-07-16T09:30:15;20.30;99.90
57664;DHT22;43493;53.098;6.064;2023-07-16T09:32:41;20.20;99.90
57664;DHT22;43493;53.098;6.064;2023-07-16T09:35:10;20.20;99.90
57664;DHT22;43493;53.098;6.064;2023-07-16T09:37:39;20.30;99.90
57664;DHT22;43493;53.098;6.064;2023-07-16T09:40:07;20.40;99.90
57664;DHT22;43493;53.098;6.064;2023-07-16T09:42:42;20.50;99.90
57664;DHT22;43493;53.098;6.064;2023-07-16T09:45:16;20.70;99.90
57664;DHT22;43493;53.098;6.064;2023-07-16T09:47:43;20.90;99.90
57664;DHT22;43493;53.098;6.064;2023-07-16T09:50:10;21.00;99.90
57664;DHT22;43493;53.098;6.064;2023-07-16T09:52:37;20.90;99.90
57664;DHT22;43493;53.098;6.064;2023-07-16T09:55:04;20.80;99.90
57664;DHT22;43493;53.098;6.064;2023-07-16T09:57:35;20.70;99.90
57664;DHT22;43493;53.098;6.064;2023-07-16T10:00:06;20.60;99.90
57664;DHT22;43493;53.098;6.064;2023-07-16T10:02:35;20.50;99.90
57664;DHT22;43493;53.098;6.064;2023-07-16T10:05:28;20.50;99.90
57664;DHT22;43493;53.098;6.064;2023-07-16T10:07:57;20.70;99.90
57664;DHT22;43493;53.098;6.064;2023-07-16T10:10:39;20.80;99.90
57664;DHT22;43493;53.098;6.064;2023-07-16T10:13:07;20.80;99.90
57664;DHT22;43493;53.098;6.064;2023-07-16T10:15:33;20.60;99.90
57664;DHT22;43493;53.098;6.064;2023-07-16T10:17:59;20.50;99.90
57664;DHT22;43493;53.098;6.064;2023-07-16T10:20:33;20.30;99.90
57664;DHT22;43493;53.098;6.064;2023-07-16T10:23:10;20.30;99.90
57664;DHT22;43493;53.098;6.064;2023-07-16T10:25:38;20.40;99.90
57664;DHT22;43493;53.098;6.064;2023-07-16T10:28:03;20.50;99.90
57664;DHT22;43493;53.098;6.064;2023-07-16T10:30:30;20.60;99.90
57664;DHT22;43493;53.098;6.064;2023-07-16T10:32:56;20.80;99.90
57664;DHT22;43493;53.098;6.064;2023-07-16T10:35:22;21.00;99.90
57664;DHT22;43493;53.098;6.064;2023-07-16T10:37:48;21.10;99.90
57664;DHT22;43493;53.098;6.064;2023-07-16T10:40:14;21.10;99.90
57664;DHT22;43493;53.098;6.064;2023-07-16T10:42:41;21.10;99.90
57664;DHT22;43493;53.098;6.064;2023-07-16T10:45:12;21.20;99.90
57664;DHT22;43493;53.098;6.064;2023-07-16T10:47:40;21.30;99.90
57664;DHT22;43493;53.098;6.064;2023-07-16T10:50:16;21.20;99.90
57664;DHT22;43493;53.098;6.064;2023-07-16T10:52:42;21.20;99.90
57664;DHT22;43493;53.098;6.064;2023-07-16T10:55:08;21.10;99.90
57664;DHT22;43493;53.098;6.064;2023-07-16T10:57:35;21.10;99.90
57664;DHT22;43493;53.098;6.064;2023-07-16T11:00:01;21.10;99.90
57664;DHT22;43493;53.098;6.064;2023-07-16T11:02:27;21.10;99.90
57664;DHT22;43493;53.098;6.064;2023-07-16T11:04:53;21.10;99.90
57664;DHT22;43493;53.098;6.064;2023-07-16T11:07:19;21.10;99.90
57664;DHT22;43493;53.098;6.064;2023-07-16T11:09:53;21.00;99.90
57664;DHT22;43493;53.098;6.064;2023-07-16T11:12:22;20.80;99.90
57664;DHT22;43493;53.098;6.064;2023-07-16T11:14:53;20.60;99.90
57664;DHT22;43493;53.098;6.064;2023-07-16T11:17:20;20.60;99.90
57664;DHT22;43493;53.098;6.064;2023-07-16T11:19:48;20.80;99.90
57664;DHT22;43493;53.098;6.064;2023-07-16T11:22:15;20.90;99.90
57664;DHT22;43493;53.098;6.064;2023-07-16T11:24:46;21.10;99.90
57664;DHT22;43493;53.098;6.064;2023-07-16T11:27:14;21.20;99.90
57664;DHT22;43493;53.098;6.064;2023-07-16T11:30:01;21.30;99.90
57664;DHT22;43493;53.098;6.064;2023-07-16T11:32:27;21.40;99.90
57664;DHT22;43493;53.098;6.064;2023-07-16T11:34:54;21.50;99.90
57664;DHT22;43493;53.098;6.064;2023-07-16T11:37:20;21.50;99.90
57664;DHT22;43493;53.098;6.064;2023-07-16T11:39:49;21.50;99.90
57664;DHT22;43493;53.098;6.064;2023-07-16T11:42:19;21.60;99.90
57664;DHT22;43493;53.098;6.064;2023-07-16T11:44:49;21.70;99.90
57664;DHT22;43493;53.098;6.064;2023-07-16T11:47:15;21.80;99.90
57664;DHT22;43493;53.098;6.064;2023-07-16T11:49:40;22.00;99.90
57664;DHT22;43493;53.098;6.064;2023-07-16T11:52:07;22.10;99.90
57664;DHT22;43493;53.098;6.064;2023-07-16T11:54:33;22.10;99.90
57664;DHT22;43493;53.098;6.064;2023-07-16T11:56:58;22.10;99.90
57664;DHT22;43493;53.098;6.064;2023-07-16T11:59:24;22.00;99.90
57664;DHT22;43493;53.098;6.064;2023-07-16T12:01:50;21.80;99.90
57664;DHT22;43493;53.098;6.064;2023-07-16T12:04:17;21.70;99.90
57664;DHT22;43493;53.098;6.064;2023-07-16T12:06:43;21.80;99.90
57664;DHT22;43493;53.098;6.064;2023-07-16T12:09:09;21.90;99.90
57664;DHT22;43493;53.098;6.064;2023-07-16T12:11:35;22.00;99.90
57664;DHT22;43493;53.098;6.064;2023-07-16T12:14:01;22.00;99.90
57664;DHT22;43493;53.098;6.064;2023-07-16T12:16:26;22.00;99.90
57664;DHT22;43493;53.098;6.064;2023-07-16T12:18:52;21.90;99.90
57664;DHT22;43493;53.098;6.064;2023-07-16T12:21:18;21.90;99.90
57664;DHT22;43493;53.098;6.064;2023-07-16T12:23:43;21.90;99.90
57664;DHT22;43493;53.098;6.064;2023-07-16T12:26:09;21.80;99.90
57664;DHT22;43493;53.098;6.064;2023-07-16T12:28:35;21.90;99.90
57664;DHT22;43493;53.098;6.064;2023-07-16T12:31:00;21.90;99.90
57664;DHT22;43493;53.098;6.064;2023-07-16T12:33:26;21.90;99.90
57664;DHT22;43493;53.098;6.064;2023-07-16T12:35:52;21.90;99.90
57664;DHT22;43493;53.098;6.064;2023-07-16T12:38:18;21.70;99.90
57664;DHT22;43493;53.098;6.064;2023-07-16T12:40:43;21.60;99.90
57664;DHT22;43493;53.098;6.064;2023-07-16T12:43:09;21.40;99.90
57664;DHT22;43493;53.098;6.064;2023-07-16T12:45:35;21.20;99.90
57664;DHT22;43493;53.098;6.064;2023-07-16T12:48:00;20.90;99.90
57664;DHT22;43493;53.098;6.064;2023-07-16T12:50:26;20.70;99.90
57664;DHT22;43493;53.098;6.064;2023-07-16T12:52:54;20.60;99.90
57664;DHT22;43493;53.098;6.064;2023-07-16T12:55:20;20.50;99.90
57664;DHT22;43493;53.098;6.064;2023-07-16T12:57:45;20.50;99.90
57664;DHT22;43493;53.098;6.064;2023-07-16T13:00:11;20.50;99.90
57664;DHT22;43493;53.098;6.064;2023-07-16T13:02:38;20.50;99.90
57664;DHT22;43493;53.098;6.064;2023-07-16T13:05:04;20.60;99.90
57664;DHT22;43493;53.098;6.064;2023-07-16T13:07:30;20.70;99.90
57664;DHT22;43493;53.098;6.064;2023-07-16T13:09:57;20.70;99.90
57664;DHT22;43493;53.098;6.064;2023-07-16T13:12:23;20.80;99.90
57664;DHT22;43493;53.098;6.064;2023-07-16T13:14:48;20.90;99.90
57664;DHT22;43493;53.098;6.064;2023-07-16T13:17:14;20.90;99.90
57664;DHT22;43493;53.098;6.064;2023-07-16T13:19:42;20.90;99.90
57664;DHT22;43493;53.098;6.064;2023-07-16T13:22:07;21.00;99.90
57664;DHT22;43493;53.098;6.064;2023-07-16T13:24:33;21.00;99.90
57664;DHT22;43493;53.098;6.064;2023-07-16T13:26:59;21.10;99.90
57664;DHT22;43493;53.098;6.064;2023-07-16T13:29:24;21.20;99.90
57664;DHT22;43493;53.098;6.064;2023-07-16T13:31:50;21.20;99.90
57664;DHT22;43493;53.098;6.064;2023-07-16T13:34:16;21.30;99.90
57664;DHT22;43493;53.098;6.064;2023-07-16T13:36:41;21.20;99.90
57664;DHT22;43493;53.098;6.064;2023-07-16T13:39:07;21.30;99.90
57664;DHT22;43493;53.098;6.064;2023-07-16T13:41:33;21.30;99.90
57664;DHT22;43493;53.098;6.064;2023-07-16T13:43:59;21.30;99.90
57664;DHT22;43493;53.098;6.064;2023-07-16T13:46:24;21.40;99.90
57664;DHT22;43493;53.098;6.064;2023-07-16T13:48:50;21.40;99.90
57664;DHT22;43493;53.098;6.064;2023-07-16T13:51:16;21.50;99.90
57664;DHT22;43493;53.098;6.064;2023-07-16T13:53:41;21.50;99.90
57664;DHT22;43493;53.098;6.064;2023-07-16T13:56:07;21.50;99.90
57664;DHT22;43493;53.098;6.064;2023-07-16T13:58:33;21.50;99.90
57664;DHT22;43493;53.098;6.064;2023-07-16T14:00:59;21.50;99.90
57664;DHT22;43493;53.098;6.064;2023-07-16T14:03:25;21.50;99.70
57664;DHT22;43493;53.098;6.064;2023-07-16T14:05:51;21.50;99.90
57664;DHT22;43493;53.098;6.064;2023-07-16T14:08:17;21.60;98.10
57664;DHT22;43493;53.098;6.064;2023-07-16T14:10:43;21.50;96.70
57664;DHT22;43493;53.098;6.064;2023-07-16T14:13:08;21.50;97.30
57664;DHT22;43493;53.098;6.064;2023-07-16T14:15:35;21.40;97.80
57664;DHT22;43493;53.098;6.064;2023-07-16T14:18:01;21.40;97.40
57664;DHT22;43493;53.098;6.064;2023-07-16T14:20:26;21.40;95.90
57664;DHT22;43493;53.098;6.064;2023-07-16T14:22:52;21.40;95.90
57664;DHT22;43493;53.098;6.064;2023-07-16T14:25:18;21.40;95.80
57664;DHT22;43493;53.098;6.064;2023-07-16T14:27:43;21.40;96.20
57664;DHT22;43493;53.098;6.064;2023-07-16T14:30:09;21.50;95.70
57664;DHT22;43493;53.098;6.064;2023-07-16T14:32:37;21.50;94.90
57664;DHT22;43493;53.098;6.064;2023-07-16T14:35:03;21.60;94.30
57664;DHT22;43493;53.098;6.064;2023-07-16T14:37:29;21.60;93.10
57664;DHT22;43493;53.098;6.064;2023-07-16T14:39:55;21.60;93.50
57664;DHT22;43493;53.098;6.064;2023-07-16T14:42:20;21.60;93.50
57664;DHT22;43493;53.098;6.064;2023-07-16T14:44:46;21.70;94.60
57664;DHT22;43493;53.098;6.064;2023-07-16T14:47:12;21.70;94.40
57664;DHT22;43493;53.098;6.064;2023-07-16T14:49:38;21.70;94.30
57664;DHT22;43493;53.098;6.064;2023-07-16T14:52:04;21.70;94.30
57664;DHT22;43493;53.098;6.064;2023-07-16T14:54:29;21.80;93.60
57664;DHT22;43493;53.098;6.064;2023-07-16T14:56:55;21.70;92.50
57664;DHT22;43493;53.098;6.064;2023-07-16T14:59:21;21.80;92.10
57664;DHT22;43493;53.098;6.064;2023-07-16T15:01:47;21.80;91.90
57664;DHT22;43493;53.098;6.064;2023-07-16T15:04:13;21.80;92.00
57664;DHT22;43493;53.098;6.064;2023-07-16T15:06:39;21.80;92.30
57664;DHT22;43493;53.098;6.064;2023-07-16T15:09:05;21.70;92.20
57664;DHT22;43493;53.098;6.064;2023-07-16T15:11:31;21.70;92.70
57664;DHT22;43493;53.098;6.064;2023-07-16T15:13:59;21.70;92.20
57664;DHT22;43493;53.098;6.064;2023-07-16T15:16:25;21.70;91.50
57664;DHT22;43493;53.098;6.064;2023-07-16T15:18:50;21.70;91.00
57664;DHT22;43493;53.098;6.064;2023-07-16T15:21:16;21.70;91.70
57664;DHT22;43493;53.098;6.064;2023-07-16T15:23:43;21.70;92.00
57664;DHT22;43493;53.098;6.064;2023-07-16T15:26:08;21.70;92.10
57664;DHT22;43493;53.098;6.064;2023-07-16T15:28:37;21.80;93.20